sensor_id;sensor_type;location;lat;lon;timestamp;P1;durP1;ratioP1;P2;durP2;ratioP2
20012;SDS011;10167;42.852;23.042;2024-01-30T00:01:53;0.52;;;0.52;;
20012;SDS011;10167;42.852;23.042;2024-01-30T00:04:22;0.70;;;0.70;;
20012;SDS011;10167;42.852;23.042;2024-01-30T00:06:54;0.30;;;0.30;;
20012;SDS011;10167;42.852;23.042;2024-01-30T00:09:25;0.20;;;0.20;;
20012;SDS011;10167;42.852;23.042;2024-01-30T00:11:55;1.85;;;1.10;;
20012;SDS011;10167;42.852;23.042;2024-01-30T00:14:24;0.28;;;0.28;;
20012;SDS011;10167;42.852;23.042;2024-01-30T00:16:54;0.43;;;0.43;;
20012;SDS011;10167;42.852;23.042;2024-01-30T00:19:24;2.15;;;0.70;;
20012;SDS011;10167;42.852;23.042;2024-01-30T00:21:55;1.30;;;1.20;;
20012;SDS011;10167;42.852;23.042;2024-01-30T00:24:24;0.50;;;0.50;;
20012;SDS011;10167;42.852;23.042;2024-01-30T00:26:53;1.15;;;0.85;;
20012;SDS011;10167;42.852;23.042;2024-01-30T00:29:23;0.65;;;0.65;;
20012;SDS011;10167;42.852;23.042;2024-01-30T00:31:58;0.63;;;0.63;;
20012;SDS011;10167;42.852;23.042;2024-01-30T00:34:28;0.35;;;0.35;;
20012;SDS011;10167;42.852;23.042;2024-01-30T00:36:59;0.40;;;0.40;;
20012;SDS011;10167;42.852;23.042;2024-01-30T00:39:29;0.50;;;0.50;;
20012;SDS011;10167;42.852;23.042;2024-01-30T00:41:59;0.47;;;0.40;;
20012;SDS011;10167;42.852;23.042;2024-01-30T00:44:29;0.30;;;0.30;;
20012;SDS011;10167;42.852;23.042;2024-01-30T00:46:58;0.95;;;0.95;;
20012;SDS011;10167;42.852;23.042;2024-01-30T00:49:28;0.98;;;0.77;;
20012;SDS011;10167;42.852;23.042;2024-01-30T00:51:59;0.22;;;0.22;;
20012;SDS011;10167;42.852;23.042;2024-01-30T00:54:29;2.13;;;0.73;;
20012;SDS011;10167;42.852;23.042;2024-01-30T00:56:59;0.22;;;0.22;;
20012;SDS011;10167;42.852;23.042;2024-01-30T00:59:29;0.93;;;0.93;;
20012;SDS011;10167;42.852;23.042;2024-01-30T01:01:58;0.47;;;0.47;;
20012;SDS011;10167;42.852;23.042;2024-01-30T01:04:29;1.27;;;0.75;;
20012;SDS011;10167;42.852;23.042;2024-01-30T01:07:00;0.90;;;0.90;;
20012;SDS011;10167;42.852;23.042;2024-01-30T01:09:29;2.33;;;1.27;;
20012;SDS011;10167;42.852;23.042;2024-01-30T01:11:58;0.20;;;0.20;;
20012;SDS011;10167;42.852;23.042;2024-01-30T01:14:28;4.13;;;1.05;;
20012;SDS011;10167;42.852;23.042;2024-01-30T01:16:58;1.20;;;1.10;;
20012;SDS011;10167;42.852;23.042;2024-01-30T01:19:28;0.68;;;0.22;;
20012;SDS011;10167;42.852;23.042;2024-01-30T01:21:59;0.93;;;0.80;;
20012;SDS011;10167;42.852;23.042;2024-01-30T01:24:30;0.50;;;0.50;;
20012;SDS011;10167;42.852;23.042;2024-01-30T01:27:00;0.32;;;0.32;;
20012;SDS011;10167;42.852;23.042;2024-01-30T01:29:30;0.57;;;0.57;;
20012;SDS011;10167;42.852;23.042;2024-01-30T01:32:00;0.70;;;0.70;;
20012;SDS011;10167;42.852;23.042;2024-01-30T01:34:30;1.35;;;0.82;;
20012;SDS011;10167;42.852;23.042;2024-01-30T01:37:01;3.60;;;1.00;;
20012;SDS011;10167;42.852;23.042;2024-01-30T01:39:31;0.60;;;0.60;;
20012;SDS011;10167;42.852;23.042;2024-01-30T01:42:01;0.40;;;0.40;;
20012;SDS011;10167;42.852;23.042;2024-01-30T01:44:31;0.65;;;0.57;;
20012;SDS011;10167;42.852;23.042;2024-01-30T01:47:01;0.30;;;0.28;;
20012;SDS011;10167;42.852;23.042;2024-01-30T01:49:31;1.08;;;0.70;;
20012;SDS011;10167;42.852;23.042;2024-01-30T01:52:03;0.50;;;0.50;;
20012;SDS011;10167;42.852;23.042;2024-01-30T01:54:35;0.30;;;0.30;;
20012;SDS011;10167;42.852;23.042;2024-01-30T01:57:05;0.30;;;0.30;;
20012;SDS011;10167;42.852;23.042;2024-01-30T01:59:34;0.20;;;0.20;;
20012;SDS011;10167;42.852;23.042;2024-01-30T02:02:04;0.63;;;0.63;;
20012;SDS011;10167;42.852;23.042;2024-01-30T02:04:40;0.60;;;0.32;;
20012;SDS011;10167;42.852;23.042;2024-01-30T02:07:12;0.47;;;0.47;;
20012;SDS011;10167;42.852;23.042;2024-01-30T02:09:42;0.68;;;0.68;;
20012;SDS011;10167;42.852;23.042;2024-01-30T02:12:11;0.60;;;0.60;;
20012;SDS011;10167;42.852;23.042;2024-01-30T02:14:44;0.90;;;0.68;;
20012;SDS011;10167;42.852;23.042;2024-01-30T02:17:14;0.30;;;0.30;;
20012;SDS011;10167;42.852;23.042;2024-01-30T02:19:45;0.57;;;0.57;;
20012;SDS011;10167;42.852;23.042;2024-01-30T02:22:16;0.38;;;0.38;;
20012;SDS011;10167;42.852;23.042;2024-01-30T02:24:47;0.35;;;0.30;;
20012;SDS011;10167;42.852;23.042;2024-01-30T02:27:16;0.28;;;0.28;;
20012;SDS011;10167;42.852;23.042;2024-01-30T02:29:47;0.82;;;0.82;;
20012;SDS011;10167;42.852;23.042;2024-01-30T02:32:16;0.80;;;0.63;;
20012;SDS011;10167;42.852;23.042;2024-01-30T02:34:47;5.60;;;1.30;;
20012;SDS011;10167;42.852;23.042;2024-01-30T02:37:19;0.35;;;0.35;;
20012;SDS011;10167;42.852;23.042;2024-01-30T02:39:48;0.30;;;0.30;;
20012;SDS011;10167;42.852;23.042;2024-01-30T02:42:19;0.57;;;0.57;;
20012;SDS011;10167;42.852;23.042;2024-01-30T02:44:49;0.20;;;0.20;;
20012;SDS011;10167;42.852;23.042;2024-01-30T02:47:18;0.43;;;0.40;;
20012;SDS011;10167;42.852;23.042;2024-01-30T02:49:48;0.95;;;0.95;;
20012;SDS011;10167;42.852;23.042;2024-01-30T02:52:23;0.40;;;0.40;;
20012;SDS011;10167;42.852;23.042;2024-01-30T02:54:53;0.20;;;0.20;;
20012;SDS011;10167;42.852;23.042;2024-01-30T02:57:22;0.22;;;0.22;;
20012;SDS011;10167;42.852;23.042;2024-01-30T02:59:52;0.10;;;0.10;;
20012;SDS011;10167;42.852;23.042;2024-01-30T03:02:22;0.20;;;0.20;;
20012;SDS011;10167;42.852;23.042;2024-01-30T03:04:52;0.32;;;0.28;;
20012;SDS011;10167;42.852;23.042;2024-01-30T03:07:23;0.30;;;0.30;;
20012;SDS011;10167;42.852;23.042;2024-01-30T03:09:54;0.28;;;0.28;;
20012;SDS011;10167;42.852;23.042;2024-01-30T03:12:24;0.30;;;0.30;;
20012;SDS011;10167;42.852;23.042;2024-01-30T03:14:53;0.20;;;0.20;;
20012;SDS011;10167;42.852;23.042;2024-01-30T03:17:23;0.65;;;0.65;;
20012;SDS011;10167;42.852;23.042;2024-01-30T03:19:53;0.55;;;0.55;;
20012;SDS011;10167;42.852;23.042;2024-01-30T03:22:24;2.17;;;0.40;;
20012;SDS011;10167;42.852;23.042;2024-01-30T03:24:54;0.43;;;0.43;;
20012;SDS011;10167;42.852;23.042;2024-01-30T03:27:24;0.30;;;0.30;;
20012;SDS011;10167;42.852;23.042;2024-01-30T03:29:53;0.35;;;0.35;;
20012;SDS011;10167;42.852;23.042;2024-01-30T03:32:23;0.30;;;0.30;;
20012;SDS011;10167;42.852;23.042;2024-01-30T03:34:53;0.30;;;0.30;;
20012;SDS011;10167;42.852;23.042;2024-01-30T03:37:24;0.75;;;0.73;;
20012;SDS011;10167;42.852;23.042;2024-01-30T03:39:54;0.70;;;0.35;;
20012;SDS011;10167;42.852;23.042;2024-01-30T03:42:24;0.63;;;0.40;;
20012;SDS011;10167;42.852;23.042;2024-01-30T03:44:54;0.13;;;0.13;;
20012;SDS011;10167;42.852;23.042;2024-01-30T03:47:24;0.22;;;0.22;;
20012;SDS011;10167;42.852;23.042;2024-01-30T03:49:54;0.20;;;0.20;;
20012;SDS011;10167;42.852;23.042;2024-01-30T03:52:26;0.20;;;0.20;;
20012;SDS011;10167;42.852;23.042;2024-01-30T03:54:56;0.30;;;0.30;;
20012;SDS011;10167;42.852;23.042;2024-01-30T03:57:26;0.40;;;0.40;;
20012;SDS011;10167;42.852;23.042;2024-01-30T03:59:55;0.28;;;0.28;;
20012;SDS011;10167;42.852;23.042;2024-01-30T04:02:38;0.22;;;0.22;;
20012;SDS011;10167;42.852;23.042;2024-01-30T04:05:08;0.10;;;0.10;;
20012;SDS011;10167;42.852;23.042;2024-01-30T04:07:39;0.20;;;0.20;;
20012;SDS011;10167;42.852;23.042;2024-01-30T04:10:09;1.08;;;0.75;;
20012;SDS011;10167;42.852;23.042;2024-01-30T04:12:39;0.45;;;0.45;;
20012;SDS011;10167;42.852;23.042;2024-01-30T04:15:09;2.17;;;1.85;;
20012;SDS011;10167;42.852;23.042;2024-01-30T04:17:38;1.15;;;1.05;;
20012;SDS011;10167;42.852;23.042;2024-01-30T04:20:12;1.05;;;0.98;;
20012;SDS011;10167;42.852;23.042;2024-01-30T04:22:46;4.68;;;0.95;;
20012;SDS011;10167;42.852;23.042;2024-01-30T04:25:16;0.43;;;0.43;;
20012;SDS011;10167;42.852;23.042;2024-01-30T04:27:45;0.70;;;0.70;;
20012;SDS011;10167;42.852;23.042;2024-01-30T04:30:15;0.45;;;0.45;;
20012;SDS011;10167;42.852;23.042;2024-01-30T04:32:44;0.52;;;0.52;;
20012;SDS011;10167;42.852;23.042;2024-01-30T04:35:15;1.48;;;1.00;;
20012;SDS011;10167;42.852;23.042;2024-01-30T04:37:46;0.50;;;0.50;;
20012;SDS011;10167;42.852;23.042;2024-01-30T04:40:16;4.13;;;0.75;;
20012;SDS011;10167;42.852;23.042;2024-01-30T04:42:46;0.82;;;0.82;;
20012;SDS011;10167;42.852;23.042;2024-01-30T04:45:16;0.73;;;0.73;;
20012;SDS011;10167;42.852;23.042;2024-01-30T04:47:45;0.50;;;0.50;;
20012;SDS011;10167;42.852;23.042;2024-01-30T04:50:16;0.45;;;0.45;;
20012;SDS011;10167;42.852;23.042;2024-01-30T04:52:48;0.38;;;0.38;;
20012;SDS011;10167;42.852;23.042;2024-01-30T04:55:18;0.70;;;0.70;;
20012;SDS011;10167;42.852;23.042;2024-01-30T04:57:49;0.20;;;0.20;;
20012;SDS011;10167;42.852;23.042;2024-01-30T05:00:19;0.30;;;0.30;;
20012;SDS011;10167;42.852;23.042;2024-01-30T05:02:49;0.22;;;0.22;;
20012;SDS011;10167;42.852;23.042;2024-01-30T05:05:18;1.25;;;1.15;;
20012;SDS011;10167;42.852;23.042;2024-01-30T05:07:50;0.75;;;0.65;;
20012;SDS011;10167;42.852;23.042;2024-01-30T05:10:19;0.50;;;0.50;;
20012;SDS011;10167;42.852;23.042;2024-01-30T05:12:49;0.90;;;0.90;;
20012;SDS011;10167;42.852;23.042;2024-01-30T05:15:19;1.35;;;1.27;;
20012;SDS011;10167;42.852;23.042;2024-01-30T05:17:51;0.75;;;0.75;;
20012;SDS011;10167;42.852;23.042;2024-01-30T05:20:21;1.33;;;1.25;;
20012;SDS011;10167;42.852;23.042;2024-01-30T05:22:53;0.40;;;0.40;;
20012;SDS011;10167;42.852;23.042;2024-01-30T05:25:24;10.38;;;0.98;;
20012;SDS011;10167;42.852;23.042;2024-01-30T05:27:54;1.83;;;1.73;;
20012;SDS011;10167;42.852;23.042;2024-01-30T05:30:24;4.07;;;2.38;;
20012;SDS011;10167;42.852;23.042;2024-01-30T05:32:55;2.13;;;1.95;;
20012;SDS011;10167;42.852;23.042;2024-01-30T05:35:26;1.90;;;1.77;;
20012;SDS011;10167;42.852;23.042;2024-01-30T05:37:56;1.23;;;1.17;;
20012;SDS011;10167;42.852;23.042;2024-01-30T05:40:26;1.75;;;1.15;;
20012;SDS011;10167;42.852;23.042;2024-01-30T05:42:58;1.30;;;1.20;;
20012;SDS011;10167;42.852;23.042;2024-01-30T05:45:30;1.17;;;1.07;;
20012;SDS011;10167;42.852;23.042;2024-01-30T05:48:00;1.92;;;1.83;;
20012;SDS011;10167;42.852;23.042;2024-01-30T05:50:31;4.13;;;2.15;;
20012;SDS011;10167;42.852;23.042;2024-01-30T05:53:02;1.25;;;1.15;;
20012;SDS011;10167;42.852;23.042;2024-01-30T05:55:32;20.23;;;10.18;;
20012;SDS011;10167;42.852;23.042;2024-01-30T05:58:02;15.00;;;9.63;;
20012;SDS011;10167;42.852;23.042;2024-01-30T06:00:32;15.07;;;6.75;;
20012;SDS011;10167;42.852;23.042;2024-01-30T06:03:04;10.40;;;6.82;;
20012;SDS011;10167;42.852;23.042;2024-01-30T06:05:35;9.10;;;4.88;;
20012;SDS011;10167;42.852;23.042;2024-01-30T06:08:06;16.00;;;3.05;;
20012;SDS011;10167;42.852;23.042;2024-01-30T06:10:36;1.80;;;1.70;;
20012;SDS011;10167;42.852;23.042;2024-01-30T06:13:07;7.72;;;3.97;;
20012;SDS011;10167;42.852;23.042;2024-01-30T06:15:37;5.43;;;2.55;;
20012;SDS011;10167;42.852;23.042;2024-01-30T06:18:07;9.00;;;4.63;;
20012;SDS011;10167;42.852;23.042;2024-01-30T06:20:36;21.60;;;5.35;;
20012;SDS011;10167;42.852;23.042;2024-01-30T06:23:08;8.48;;;4.90;;
20012;SDS011;10167;42.852;23.042;2024-01-30T06:25:40;9.52;;;5.38;;
20012;SDS011;10167;42.852;23.042;2024-01-30T06:28:10;11.05;;;4.47;;
20012;SDS011;10167;42.852;23.042;2024-01-30T06:30:41;2.88;;;2.70;;
20012;SDS011;10167;42.852;23.042;2024-01-30T06:33:11;16.20;;;7.32;;
20012;SDS011;10167;42.852;23.042;2024-01-30T06:35:43;10.33;;;4.03;;
20012;SDS011;10167;42.852;23.042;2024-01-30T06:38:16;11.82;;;6.43;;
20012;SDS011;10167;42.852;23.042;2024-01-30T06:40:46;3.58;;;2.85;;
20012;SDS011;10167;42.852;23.042;2024-01-30T06:43:15;4.65;;;3.50;;
20012;SDS011;10167;42.852;23.042;2024-01-30T06:45:46;5.85;;;2.80;;
20012;SDS011;10167;42.852;23.042;2024-01-30T06:48:17;2.17;;;2.03;;
20012;SDS011;10167;42.852;23.042;2024-01-30T06:50:46;6.55;;;5.00;;
20012;SDS011;10167;42.852;23.042;2024-01-30T06:53:18;2.55;;;2.33;;
20012;SDS011;10167;42.852;23.042;2024-01-30T06:55:51;3.47;;;2.40;;
20012;SDS011;10167;42.852;23.042;2024-01-30T06:58:21;4.28;;;2.45;;
20012;SDS011;10167;42.852;23.042;2024-01-30T07:00:51;2.05;;;1.95;;
20012;SDS011;10167;42.852;23.042;2024-01-30T07:03:22;7.45;;;3.70;;
20012;SDS011;10167;42.852;23.042;2024-01-30T07:05:51;2.85;;;2.05;;
20012;SDS011;10167;42.852;23.042;2024-01-30T07:08:23;3.08;;;2.85;;
20012;SDS011;10167;42.852;23.042;2024-01-30T07:10:53;1.85;;;1.73;;
20012;SDS011;10167;42.852;23.042;2024-01-30T07:13:27;6.47;;;3.63;;
20012;SDS011;10167;42.852;23.042;2024-01-30T07:15:57;1.67;;;1.25;;
20012;SDS011;10167;42.852;23.042;2024-01-30T07:18:27;4.72;;;1.63;;
20012;SDS011;10167;42.852;23.042;2024-01-30T07:20:56;2.40;;;2.28;;
20012;SDS011;10167;42.852;23.042;2024-01-30T07:23:29;7.18;;;4.38;;
20012;SDS011;10167;42.852;23.042;2024-01-30T07:25:59;5.38;;;4.25;;
20012;SDS011;10167;42.852;23.042;2024-01-30T07:28:28;2.30;;;1.98;;
20012;SDS011;10167;42.852;23.042;2024-01-30T07:30:58;2.42;;;2.22;;
20012;SDS011;10167;42.852;23.042;2024-01-30T07:33:27;5.35;;;3.63;;
20012;SDS011;10167;42.852;23.042;2024-01-30T07:35:57;10.00;;;4.18;;
20012;SDS011;10167;42.852;23.042;2024-01-30T07:38:29;7.05;;;1.95;;
20012;SDS011;10167;42.852;23.042;2024-01-30T07:41:00;0.75;;;0.75;;
20012;SDS011;10167;42.852;23.042;2024-01-30T07:43:30;0.68;;;0.52;;
20012;SDS011;10167;42.852;23.042;2024-01-30T07:46:01;0.57;;;0.57;;
20012;SDS011;10167;42.852;23.042;2024-01-30T07:48:31;0.57;;;0.57;;
20012;SDS011;10167;42.852;23.042;2024-01-30T07:51:04;2.65;;;0.98;;
20012;SDS011;10167;42.852;23.042;2024-01-30T07:53:36;0.90;;;0.90;;
20012;SDS011;10167;42.852;23.042;2024-01-30T07:56:08;0.73;;;0.73;;
20012;SDS011;10167;42.852;23.042;2024-01-30T07:58:37;0.30;;;0.30;;
20012;SDS011;10167;42.852;23.042;2024-01-30T08:01:07;0.52;;;0.52;;
20012;SDS011;10167;42.852;23.042;2024-01-30T08:03:37;0.20;;;0.20;;
20012;SDS011;10167;42.852;23.042;2024-01-30T08:06:09;0.40;;;0.40;;
20012;SDS011;10167;42.852;23.042;2024-01-30T08:08:41;2.60;;;0.98;;
20012;SDS011;10167;42.852;23.042;2024-01-30T08:11:10;1.55;;;1.45;;
20012;SDS011;10167;42.852;23.042;2024-01-30T08:13:41;2.47;;;1.15;;
20012;SDS011;10167;42.852;23.042;2024-01-30T08:16:11;0.57;;;0.57;;
20012;SDS011;10167;42.852;23.042;2024-01-30T08:18:41;1.30;;;1.20;;
20012;SDS011;10167;42.852;23.042;2024-01-30T08:21:12;0.98;;;0.93;;
20012;SDS011;10167;42.852;23.042;2024-01-30T08:23:43;0.90;;;0.75;;
20012;SDS011;10167;42.852;23.042;2024-01-30T08:26:13;0.98;;;0.82;;
20012;SDS011;10167;42.852;23.042;2024-01-30T08:28:43;0.50;;;0.50;;
20012;SDS011;10167;42.852;23.042;2024-01-30T08:31:13;2.35;;;0.88;;
20012;SDS011;10167;42.852;23.042;2024-01-30T08:33:43;0.43;;;0.43;;
20012;SDS011;10167;42.852;23.042;2024-01-30T08:36:16;1.88;;;0.88;;
20012;SDS011;10167;42.852;23.042;2024-01-30T08:38:50;0.90;;;0.88;;
20012;SDS011;10167;42.852;23.042;2024-01-30T08:41:28;0.52;;;0.50;;
20012;SDS011;10167;42.852;23.042;2024-01-30T08:43:57;1.70;;;1.15;;
20012;SDS011;10167;42.852;23.042;2024-01-30T08:46:29;1.23;;;0.82;;
20012;SDS011;10167;42.852;23.042;2024-01-30T08:48:59;0.40;;;0.40;;
20012;SDS011;10167;42.852;23.042;2024-01-30T08:51:32;0.75;;;0.70;;
20012;SDS011;10167;42.852;23.042;2024-01-30T08:54:03;0.57;;;0.57;;
20012;SDS011;10167;42.852;23.042;2024-01-30T08:56:33;0.40;;;0.40;;
20012;SDS011;10167;42.852;23.042;2024-01-30T08:59:03;0.95;;;0.73;;
20012;SDS011;10167;42.852;23.042;2024-01-30T09:01:33;8.38;;;1.65;;
20012;SDS011;10167;42.852;23.042;2024-01-30T09:04:03;0.28;;;0.28;;
20012;SDS011;10167;42.852;23.042;2024-01-30T09:06:32;4.95;;;0.77;;
20012;SDS011;10167;42.852;23.042;2024-01-30T09:09:03;0.65;;;0.55;;
20012;SDS011;10167;42.852;23.042;2024-01-30T09:11:34;1.45;;;0.65;;
20012;SDS011;10167;42.852;23.042;2024-01-30T09:14:04;0.63;;;0.35;;
20012;SDS011;10167;42.852;23.042;2024-01-30T09:16:34;26.23;;;1.30;;
20012;SDS011;10167;42.852;23.042;2024-01-30T09:19:04;0.32;;;0.32;;
20012;SDS011;10167;42.852;23.042;2024-01-30T09:21:36;1.35;;;0.30;;
20012;SDS011;10167;42.852;23.042;2024-01-30T09:24:07;1.17;;;0.60;;
20012;SDS011;10167;42.852;23.042;2024-01-30T09:26:37;3.45;;;1.70;;
20012;SDS011;10167;42.852;23.042;2024-01-30T09:29:09;0.32;;;0.32;;
20012;SDS011;10167;42.852;23.042;2024-01-30T09:31:39;1.67;;;0.60;;
20012;SDS011;10167;42.852;23.042;2024-01-30T09:34:15;0.25;;;0.25;;
20012;SDS011;10167;42.852;23.042;2024-01-30T09:36:45;0.30;;;0.30;;
20012;SDS011;10167;42.852;23.042;2024-01-30T09:39:17;1.33;;;0.95;;
20012;SDS011;10167;42.852;23.042;2024-01-30T09:41:48;0.40;;;0.40;;
20012;SDS011;10167;42.852;23.042;2024-01-30T09:44:21;1.02;;;0.77;;
20012;SDS011;10167;42.852;23.042;2024-01-30T09:46:54;42.97;;;1.50;;
20012;SDS011;10167;42.852;23.042;2024-01-30T09:49:26;0.38;;;0.38;;
20012;SDS011;10167;42.852;23.042;2024-01-30T09:51:56;45.58;;;1.55;;
20012;SDS011;10167;42.852;23.042;2024-01-30T09:54:29;0.20;;;0.20;;
20012;SDS011;10167;42.852;23.042;2024-01-30T09:57:03;0.50;;;0.50;;
20012;SDS011;10167;42.852;23.042;2024-01-30T09:59:35;1.88;;;1.30;;
20012;SDS011;10167;42.852;23.042;2024-01-30T10:02:05;1.17;;;1.02;;
20012;SDS011;10167;42.852;23.042;2024-01-30T10:04:35;0.30;;;0.30;;
20012;SDS011;10167;42.852;23.042;2024-01-30T10:07:06;0.40;;;0.40;;
20012;SDS011;10167;42.852;23.042;2024-01-30T10:09:38;0.50;;;0.50;;
20012;SDS011;10167;42.852;23.042;2024-01-30T10:12:08;0.93;;;0.73;;
20012;SDS011;10167;42.852;23.042;2024-01-30T10:14:39;1.35;;;0.50;;
20012;SDS011;10167;42.852;23.042;2024-01-30T10:17:09;0.52;;;0.52;;
20012;SDS011;10167;42.852;23.042;2024-01-30T10:19:54;3.45;;;1.85;;
20012;SDS011;10167;42.852;23.042;2024-01-30T10:22:24;1.58;;;1.27;;
20012;SDS011;10167;42.852;23.042;2024-01-30T10:24:55;0.47;;;0.35;;
20012;SDS011;10167;42.852;23.042;2024-01-30T10:27:30;1.30;;;0.75;;
20012;SDS011;10167;42.852;23.042;2024-01-30T10:30:00;0.45;;;0.45;;
20012;SDS011;10167;42.852;23.042;2024-01-30T10:32:31;16.75;;;0.75;;
20012;SDS011;10167;42.852;23.042;2024-01-30T10:35:01;8.82;;;1.50;;
20012;SDS011;10167;42.852;23.042;2024-01-30T10:37:35;1.63;;;1.23;;
20012;SDS011;10167;42.852;23.042;2024-01-30T10:40:08;1.38;;;0.70;;
20012;SDS011;10167;42.852;23.042;2024-01-30T10:42:42;0.32;;;0.32;;
20012;SDS011;10167;42.852;23.042;2024-01-30T10:45:14;1.70;;;0.35;;
20012;SDS011;10167;42.852;23.042;2024-01-30T10:47:50;1.45;;;0.88;;
20012;SDS011;10167;42.852;23.042;2024-01-30T10:50:22;1.05;;;0.95;;
20012;SDS011;10167;42.852;23.042;2024-01-30T10:52:54;17.42;;;1.08;;
20012;SDS011;10167;42.852;23.042;2024-01-30T10:55:27;0.57;;;0.32;;
20012;SDS011;10167;42.852;23.042;2024-01-30T10:57:58;0.30;;;0.30;;
20012;SDS011;10167;42.852;23.042;2024-01-30T11:00:28;1.02;;;0.65;;
20012;SDS011;10167;42.852;23.042;2024-01-30T11:03:02;0.75;;;0.43;;
20012;SDS011;10167;42.852;23.042;2024-01-30T11:05:33;2.22;;;0.85;;
20012;SDS011;10167;42.852;23.042;2024-01-30T11:08:10;0.77;;;0.45;;
20012;SDS011;10167;42.852;23.042;2024-01-30T11:10:48;3.53;;;1.08;;
20012;SDS011;10167;42.852;23.042;2024-01-30T11:13:19;0.32;;;0.32;;
20012;SDS011;10167;42.852;23.042;2024-01-30T11:15:49;4.63;;;1.45;;
20012;SDS011;10167;42.852;23.042;2024-01-30T11:18:23;1.17;;;1.08;;
20012;SDS011;10167;42.852;23.042;2024-01-30T11:20:55;0.45;;;0.45;;
20012;SDS011;10167;42.852;23.042;2024-01-30T11:23:26;1.55;;;0.80;;
20012;SDS011;10167;42.852;23.042;2024-01-30T11:25:57;7.03;;;0.95;;
20012;SDS011;10167;42.852;23.042;2024-01-30T11:28:31;0.50;;;0.50;;
20012;SDS011;10167;42.852;23.042;2024-01-30T11:31:03;3.30;;;1.95;;
20012;SDS011;10167;42.852;23.042;2024-01-30T11:33:33;1.13;;;0.68;;
20012;SDS011;10167;42.852;23.042;2024-01-30T11:36:04;3.88;;;1.13;;
20012;SDS011;10167;42.852;23.042;2024-01-30T11:38:35;0.88;;;0.70;;
20012;SDS011;10167;42.852;23.042;2024-01-30T11:41:10;0.73;;;0.73;;
20012;SDS011;10167;42.852;23.042;2024-01-30T11:43:39;8.88;;;0.57;;
20012;SDS011;10167;42.852;23.042;2024-01-30T11:46:10;2.92;;;1.80;;
20012;SDS011;10167;42.852;23.042;2024-01-30T11:48:40;0.60;;;0.60;;
20012;SDS011;10167;42.852;23.042;2024-01-30T11:51:09;1.20;;;1.10;;
20012;SDS011;10167;42.852;23.042;2024-01-30T11:53:41;1.30;;;0.88;;
20012;SDS011;10167;42.852;23.042;2024-01-30T11:56:13;0.63;;;0.63;;
20012;SDS011;10167;42.852;23.042;2024-01-30T11:58:43;0.52;;;0.52;;
20012;SDS011;10167;42.852;23.042;2024-01-30T12:01:13;16.27;;;1.00;;
20012;SDS011;10167;42.852;23.042;2024-01-30T12:03:43;0.55;;;0.55;;
20012;SDS011;10167;42.852;23.042;2024-01-30T12:06:19;0.52;;;0.52;;
20012;SDS011;10167;42.852;23.042;2024-01-30T12:08:56;0.85;;;0.82;;
20012;SDS011;10167;42.852;23.042;2024-01-30T12:11:29;1.23;;;1.13;;
20012;SDS011;10167;42.852;23.042;2024-01-30T12:14:01;0.43;;;0.43;;
20012;SDS011;10167;42.852;23.042;2024-01-30T12:16:30;5.38;;;0.70;;
20012;SDS011;10167;42.852;23.042;2024-01-30T12:19:01;0.25;;;0.25;;
20012;SDS011;10167;42.852;23.042;2024-01-30T12:21:31;0.40;;;0.40;;
20012;SDS011;10167;42.852;23.042;2024-01-30T12:24:01;1.90;;;0.98;;
20012;SDS011;10167;42.852;23.042;2024-01-30T12:26:32;0.30;;;0.30;;
20012;SDS011;10167;42.852;23.042;2024-01-30T12:29:03;0.52;;;0.50;;
20012;SDS011;10167;42.852;23.042;2024-01-30T12:31:33;2.13;;;0.40;;
20012;SDS011;10167;42.852;23.042;2024-01-30T12:34:03;0.73;;;0.73;;
20012;SDS011;10167;42.852;23.042;2024-01-30T12:36:34;0.25;;;0.25;;
20012;SDS011;10167;42.852;23.042;2024-01-30T12:39:04;0.65;;;0.65;;
20012;SDS011;10167;42.852;23.042;2024-01-30T12:41:36;0.95;;;0.95;;
20012;SDS011;10167;42.852;23.042;2024-01-30T12:44:07;0.50;;;0.50;;
20012;SDS011;10167;42.852;23.042;2024-01-30T12:46:37;0.40;;;0.40;;
20012;SDS011;10167;42.852;23.042;2024-01-30T12:49:07;0.40;;;0.40;;
20012;SDS011;10167;42.852;23.042;2024-01-30T12:51:37;9.73;;;2.15;;
20012;SDS011;10167;42.852;23.042;2024-01-30T12:54:08;0.32;;;0.32;;
20012;SDS011;10167;42.852;23.042;2024-01-30T12:56:40;1.05;;;0.70;;
20012;SDS011;10167;42.852;23.042;2024-01-30T12:59:10;0.95;;;0.95;;
20012;SDS011;10167;42.852;23.042;2024-01-30T13:01:39;0.45;;;0.30;;
20012;SDS011;10167;42.852;23.042;2024-01-30T13:04:09;0.43;;;0.43;;
20012;SDS011;10167;42.852;23.042;2024-01-30T13:06:40;0.88;;;0.25;;
20012;SDS011;10167;42.852;23.042;2024-01-30T13:09:11;1.23;;;0.73;;
20012;SDS011;10167;42.852;23.042;2024-01-30T13:11:42;1.02;;;1.02;;
20012;SDS011;10167;42.852;23.042;2024-01-30T13:14:12;0.30;;;0.30;;
20012;SDS011;10167;42.852;23.042;2024-01-30T13:16:42;0.77;;;0.40;;
20012;SDS011;10167;42.852;23.042;2024-01-30T13:19:12;0.98;;;0.98;;
20012;SDS011;10167;42.852;23.042;2024-01-30T13:21:43;0.82;;;0.73;;
20012;SDS011;10167;42.852;23.042;2024-01-30T13:24:12;0.30;;;0.30;;
20012;SDS011;10167;42.852;23.042;2024-01-30T13:26:45;0.88;;;0.65;;
20012;SDS011;10167;42.852;23.042;2024-01-30T13:29:14;2.45;;;0.47;;
20012;SDS011;10167;42.852;23.042;2024-01-30T13:31:44;0.75;;;0.63;;
20012;SDS011;10167;42.852;23.042;2024-01-30T13:34:14;2.40;;;0.85;;
20012;SDS011;10167;42.852;23.042;2024-01-30T13:36:44;2.60;;;1.67;;
20012;SDS011;10167;42.852;23.042;2024-01-30T13:39:14;0.25;;;0.25;;
20012;SDS011;10167;42.852;23.042;2024-01-30T13:41:46;0.52;;;0.52;;
20012;SDS011;10167;42.852;23.042;2024-01-30T13:44:16;0.40;;;0.32;;
20012;SDS011;10167;42.852;23.042;2024-01-30T13:46:45;0.52;;;0.52;;
20012;SDS011;10167;42.852;23.042;2024-01-30T13:49:15;0.90;;;0.70;;
20012;SDS011;10167;42.852;23.042;2024-01-30T13:51:46;1.25;;;1.00;;
20012;SDS011;10167;42.852;23.042;2024-01-30T13:54:16;1.13;;;1.02;;
20012;SDS011;10167;42.852;23.042;2024-01-30T13:56:47;1.42;;;1.13;;
20012;SDS011;10167;42.852;23.042;2024-01-30T13:59:18;0.30;;;0.30;;
20012;SDS011;10167;42.852;23.042;2024-01-30T14:01:52;0.73;;;0.43;;
20012;SDS011;10167;42.852;23.042;2024-01-30T14:04:21;2.55;;;1.02;;
20012;SDS011;10167;42.852;23.042;2024-01-30T14:06:51;0.75;;;0.68;;
20012;SDS011;10167;42.852;23.042;2024-01-30T14:09:31;0.30;;;0.30;;
20012;SDS011;10167;42.852;23.042;2024-01-30T14:12:04;1.02;;;0.60;;
20012;SDS011;10167;42.852;23.042;2024-01-30T14:14:33;0.98;;;0.80;;
20012;SDS011;10167;42.852;23.042;2024-01-30T14:17:03;1.25;;;1.15;;
20012;SDS011;10167;42.852;23.042;2024-01-30T14:19:37;6.55;;;1.58;;
20012;SDS011;10167;42.852;23.042;2024-01-30T14:22:07;3.20;;;0.73;;
20012;SDS011;10167;42.852;23.042;2024-01-30T14:24:37;0.88;;;0.45;;
20012;SDS011;10167;42.852;23.042;2024-01-30T14:27:09;11.85;;;4.70;;
20012;SDS011;10167;42.852;23.042;2024-01-30T14:29:39;9.52;;;4.30;;
20012;SDS011;10167;42.852;23.042;2024-01-30T14:32:11;3.35;;;1.67;;
20012;SDS011;10167;42.852;23.042;2024-01-30T14:34:40;2.83;;;2.50;;
20012;SDS011;10167;42.852;23.042;2024-01-30T14:37:10;0.98;;;0.98;;
20012;SDS011;10167;42.852;23.042;2024-01-30T14:39:39;0.40;;;0.40;;
20012;SDS011;10167;42.852;23.042;2024-01-30T14:42:11;1.90;;;1.67;;
20012;SDS011;10167;42.852;23.042;2024-01-30T14:44:41;1.75;;;1.35;;
20012;SDS011;10167;42.852;23.042;2024-01-30T14:47:11;1.10;;;0.93;;
20012;SDS011;10167;42.852;23.042;2024-01-30T14:49:42;5.28;;;2.92;;
20012;SDS011;10167;42.852;23.042;2024-01-30T14:52:12;2.35;;;1.95;;
20012;SDS011;10167;42.852;23.042;2024-01-30T14:54:42;1.27;;;1.17;;